Pagrindinis puslapis
METAR-TAF:

METAR-TAF

Oro uostai :

Hua Hin, Tailandas

platuma: 12-35N, ilguma: 099-57E, Aukštis: 5 m

Dabartinis oras

Ataskaita buvo paskelbta 39 minutes, ne 04:00 UTC
Vėjas 9 kt iš Pietryčių
Temperatūra 30°C
Drėgmė 70%
Slėgis 1014 hPa
Matomumas: 9000 m
Mažai debesys ne aukštis 3000 ft
Su prošvaistėmis ne aukštis 9000 ft

METAR: VTPH 020400Z 14009KT 9000 FEW030 BKN090 30/24 Q1014 NOSIG

Laikas: 11:39 (04:39 UTC)

Prognozė

Ataskaita buvo paskelbta 5 valandos ir 39 minutes, ne 23:00 UTC
Prognozė galioja nuo 02 metu 00 UTC su 02 metu 24 UTC
Vėjas 3 kt iš Pietvakarių
Matomumas: 9000 m
Mažai debesys ne aukštis 2000 ft
Tapsmas
nuo 02 metu 04 UTC su 02 metu 06 UTC
Vėjas 10 kt iš Pietryčių
Tapsmas
nuo 02 metu 13 UTC su 02 metu 15 UTC
Vėjas 3 kt iš Pietvakarių

TAF: VTPH 012300Z 0200/0224 23003KT 9000 FEW020 BECMG 0204/0206 14010KT BECMG 0213/0215 23003KT

Orai ataskaitas ir orų prognozės (METAR, TAF).

turimą stotys yra geltonos ir raudonos taškus žemėlapyje.

Perkelti pele per norėdami pamatyti stoties vardą.

Tada spustelėkite, norėdami matyti oro stebėjimo ir prognozės.

Norėdami pakeisti žemėlapį: spustelėkite ant žalios mygtukų su juodo kryžiaus žemyn,; žalią mygtuką su brūkšneliu, jei norite nutolinti; arba žalių rodyklių gretimoms žemėlapius.


METAR-TAF: